Chicago O'Hare International Airport
KORD : rendu visible

Aérodrome :











RETROUVEZ-NOUS SUR...

 
LOGIN :

S'inscrire | Disclaimer

   EN    FR    IT 

 









Légende :    VFR   VFR Marginal   IFR   IFR Intensif   IFR Très Intensif
Visi : 
Plafond : 
>= 8 km
>= 3000ft
5 à 8 km
1000 à 3000 ft
1500m à 5 km
500 à 1000 ft
800 à 1500m
200 à 500 ft
< 800m
< 200 ft
Symboles :   Orages  Brouillard  Fortes neiges  Fortes précipitations  Vent > 20 kt






- Altitude de l'aérodrome : 672 ft
- Code IATA : ORD


KORD - Chicago O'Hare International

DERNIER METAR :
  • 121751Z 29007KT 250V320 10SM FEW030 M09/M17 A3048 RMK AO2 SLP337 4/003 933002 T10941167 11094 21139 58004

METARs EXPIRÉS :
  • 121651Z 28007KT 10SM FEW030 M10/M17 A3050 RMK AO2 SLP341 T11001167
  • 121551Z 31007KT 10SM FEW030 M11/M17 A3049 RMK AO2 SLP340 T11111172

TAF KORD
Valide du 12 à 18h jusqu'au 14 à 00h UTC


121730Z 1218/1324 30010KT P6SM FEW030
FM130000 24005KT P6SM SCT200
FM130900 19011KT P6SM BKN150
FM131400 19016G24KT P6SM OVC150
FM132200 20013G21KT P6SM OVC080



MET'MAP, la Météo Aéronautique d'un coup d'oeil ! - Copyright ORBIFLY Décembre 2007 - Disclaimer

ORBIFLY MET'MAP TEAM :

Programmation & Développement : Alexandra Zaïnal
Conception & Développement : Baudouin d'Aumeries
Co-Programmation & Développement : Marc-Olivier Méhu
Soutien technique & logistique : Manuel Goepfert

Contact : metmap@orbifly.com




SOURCES & CREDITS :

   NOAA       Earth
Advisory